Time;durP1;ratioP1;P1;durP2;ratioP2;P2;SDS_P1;SDS_P2;PMS_P1;PMS_P2;Temp;Humidity;BMP_temperature;BMP_pressure;BME280_temperature;BME280_humidity;BME280_pressure;Samples;Min_cycle;Max_cycle;Signal;HPM_P1;HPM_P2
2023/06/23 04:39:48;;;;;;;24.20;23.00;;;21.90;99.90;;;;;;5068792;28;20616;-60
2023/06/23 04:42:20;;;;;;;23.40;22.40;;;21.90;99.90;;;;;;5068867;28;20542;-58
2023/06/23 04:44:51;;;;;;;24.00;22.90;;;21.90;99.90;;;;;;5068626;28;20475;-57
2023/06/23 04:47:22;;;;;;;24.37;23.27;;;22.00;99.90;;;;;;5068514;28;20497;-61
2023/06/23 04:49:56;;;;;;;24.20;23.10;;;22.00;99.90;;;;;;5068840;28;20474;-57
2023/06/23 04:52:26;;;;;;;23.50;22.50;;;22.10;99.90;;;;;;5069266;28;20467;-62
2023/06/23 04:54:59;;;;;;;24.80;23.70;;;22.20;99.90;;;;;;5068576;28;20823;-62
2023/06/23 04:57:30;;;;;;;24.53;23.43;;;22.30;99.90;;;;;;5068261;28;20440;-62
2023/06/23 04:59:59;;;;;;;24.20;23.10;;;22.30;99.90;;;;;;5068584;28;20479;-62
2023/06/23 05:02:28;;;;;;;23.80;22.70;;;22.30;99.90;;;;;;5068463;28;20522;-62
2023/06/23 05:04:57;;;;;;;24.03;22.83;;;22.40;99.90;;;;;;5068550;28;20483;-62
2023/06/23 05:07:25;;;;;;;23.30;22.10;;;22.40;99.90;;;;;;5068109;28;20475;-57
2023/06/23 05:09:54;;;;;;;23.13;22.03;;;22.40;99.90;;;;;;5068393;28;20466;-58
2023/06/23 05:12:24;;;;;;;24.80;23.80;;;22.50;99.90;;;;;;5068321;28;20470;-57
2023/06/23 05:14:54;;;;;;;23.80;22.70;;;22.50;99.90;;;;;;5068331;28;20526;-57
2023/06/23 05:17:23;;;;;;;24.60;23.40;;;22.50;99.90;;;;;;5067868;28;20447;-58
2023/06/23 05:19:50;;;;;;;24.67;23.37;;;22.60;99.90;;;;;;5068045;28;20566;-54
2023/06/23 05:22:19;;;;;;;24.50;23.30;;;22.60;99.90;;;;;;5068063;28;20490;-60
2023/06/23 05:24:50;;;;;;;24.17;23.13;;;22.60;99.90;;;;;;5068147;28;20501;-57
2023/06/23 05:27:20;;;;;;;23.07;22.07;;;22.60;99.90;;;;;;5067788;28;20443;-58
2023/06/23 05:29:49;;;;;;;24.53;23.60;;;22.60;99.90;;;;;;5067999;28;20522;-62
2023/06/23 05:32:19;;;;;;;24.83;23.57;;;22.60;99.90;;;;;;5067985;28;20439;-62
2023/06/23 05:34:49;;;;;;;24.10;23.00;;;22.60;99.90;;;;;;5067786;28;21002;-62
2023/06/23 05:37:20;;;;;;;23.27;22.27;;;22.60;99.90;;;;;;5067374;28;20451;-62
2023/06/23 05:39:48;;;;;;;22.17;21.37;;;22.70;99.90;;;;;;5067837;28;20651;-63
2023/06/23 05:42:16;;;;;;;24.37;23.27;;;22.70;99.90;;;;;;5067605;28;20479;-63
2023/06/23 05:44:44;;;;;;;24.83;23.63;;;22.70;99.90;;;;;;5067596;28;20483;-63
2023/06/23 05:47:15;;;;;;;24.87;23.87;;;22.70;99.90;;;;;;5067397;28;20471;-62
2023/06/23 05:49:44;;;;;;;24.10;22.90;;;22.70;99.90;;;;;;5061766;28;20507;-62
2023/06/23 05:52:19;;;;;;;22.80;21.80;;;22.70;99.90;;;;;;5054285;28;20483;-63
2023/06/23 05:54:48;;;;;;;23.90;22.67;;;22.70;99.90;;;;;;5054241;28;20471;-62
2023/06/23 05:57:23;;;;;;;24.40;23.40;;;22.70;99.90;;;;;;5054022;28;20454;-62
2023/06/23 06:00:03;;;;;;;24.97;23.93;;;22.70;99.90;;;;;;5054108;28;20487;-62
2023/06/23 06:02:32;;;;;;;24.70;23.80;;;22.80;99.90;;;;;;5054084;28;20941;-63
2023/06/23 06:05:00;;;;;;;27.00;25.80;;;22.80;99.90;;;;;;5054032;28;20476;-62
2023/06/23 06:07:28;;;;;;;26.77;25.53;;;22.80;99.90;;;;;;5053696;28;20444;-62
2023/06/23 06:09:57;;;;;;;26.40;25.17;;;22.80;99.90;;;;;;5054030;28;20476;-63
2023/06/23 06:12:26;;;;;;;25.83;24.63;;;22.70;99.90;;;;;;5053971;28;20471;-63
2023/06/23 06:14:55;;;;;;;25.30;24.13;;;22.80;99.90;;;;;;5053882;28;20530;-59
2023/06/23 06:17:24;;;;;;;25.13;24.03;;;22.80;99.90;;;;;;5053516;28;20479;-57
2023/06/23 06:19:55;;;;;;;26.30;25.10;;;22.80;99.90;;;;;;5053900;28;20900;-59
2023/06/23 06:22:24;;;;;;;25.10;23.90;;;22.90;99.90;;;;;;5053760;28;20873;-57
2023/06/23 06:24:53;;;;;;;26.37;25.20;;;22.90;99.90;;;;;;5053617;28;20942;-57
2023/06/23 06:27:22;;;;;;;26.47;25.27;;;22.80;99.90;;;;;;5053334;28;20487;-59
2023/06/23 06:29:51;;;;;;;26.47;25.33;;;22.90;99.90;;;;;;5053552;28;20471;-60
2023/06/23 06:32:20;;;;;;;25.00;23.80;;;22.90;99.90;;;;;;5053602;28;20535;-57
2023/06/23 06:34:49;;;;;;;25.90;24.80;;;22.90;99.90;;;;;;5053501;28;20476;-58
2023/06/23 06:37:17;;;;;;;27.33;26.13;;;22.90;99.90;;;;;;5053117;28;20483;-59
2023/06/23 06:39:46;;;;;;;27.90;26.50;;;22.80;99.90;;;;;;5053389;28;20567;-62
2023/06/23 06:42:13;;;;;;;28.07;26.77;;;22.90;99.90;;;;;;5053491;28;20452;-62
2023/06/23 06:44:40;;;;;;;27.00;25.70;;;22.90;99.90;;;;;;5053263;28;20965;-62
2023/06/23 06:47:11;;;;;;;27.90;26.43;;;22.90;99.90;;;;;;5053154;28;20483;-62
2023/06/23 06:49:41;;;;;;;25.47;24.47;;;22.90;99.90;;;;;;5053075;28;20551;-63
2023/06/23 06:52:08;;;;;;;27.13;25.83;;;22.80;99.90;;;;;;5053065;28;20961;-63
2023/06/23 06:54:35;;;;;;;27.20;26.00;;;22.90;99.90;;;;;;5053082;28;20476;-59
2023/06/23 06:57:03;;;;;;;26.47;25.23;;;22.90;99.90;;;;;;5053002;28;20487;-61
2023/06/23 06:59:30;;;;;;;26.77;25.20;;;22.90;99.90;;;;;;5052852;28;20571;-60
2023/06/23 07:01:58;;;;;;;25.30;24.23;;;22.90;99.90;;;;;;5052069;28;20487;-57
2023/06/23 07:04:25;;;;;;;25.60;24.40;;;22.90;99.90;;;;;;5052950;28;20480;-55
2023/06/23 07:06:54;;;;;;;27.30;26.00;;;22.90;99.90;;;;;;5052705;28;20479;-60
2023/06/23 07:09:21;;;;;;;26.23;25.13;;;22.90;99.90;;;;;;5052797;28;20515;-54
2023/06/23 07:11:48;;;;;;;25.63;24.33;;;23.00;99.90;;;;;;5052861;28;20873;-59
2023/06/23 07:14:15;;;;;;;26.83;25.63;;;23.00;99.90;;;;;;5052857;28;20456;-54
2023/06/23 07:16:42;;;;;;;27.93;26.53;;;23.00;99.90;;;;;;5052447;28;20566;-61
2023/06/23 07:19:09;;;;;;;24.90;23.77;;;23.00;99.90;;;;;;5052437;28;20570;-57
2023/06/23 07:21:36;;;;;;;25.17;24.07;;;23.00;99.90;;;;;;5052613;28;20484;-56
2023/06/23 07:24:04;;;;;;;26.07;24.83;;;23.00;99.90;;;;;;5052488;28;20472;-58
2023/06/23 07:26:33;;;;;;;27.83;26.53;;;23.00;99.90;;;;;;5052376;28;20510;-54
2023/06/23 07:29:00;;;;;;;25.37;24.27;;;23.10;99.90;;;;;;5052425;28;20468;-57
2023/06/23 07:31:27;;;;;;;26.37;25.27;;;23.00;99.90;;;;;;5052321;28;20869;-56
2023/06/23 07:33:54;;;;;;;27.50;26.40;;;23.10;99.90;;;;;;5052436;28;20448;-54
2023/06/23 07:36:20;;;;;;;27.80;26.50;;;23.10;99.90;;;;;;5052047;28;20486;-58
2023/06/23 07:38:48;;;;;;;26.70;25.60;;;23.10;99.90;;;;;;5051960;28;20574;-57
2023/06/23 07:41:16;;;;;;;27.50;25.90;;;23.10;99.90;;;;;;5052236;28;20792;-59
2023/06/23 07:43:43;;;;;;;25.53;24.23;;;23.10;99.90;;;;;;5052110;28;20884;-58
2023/06/23 07:46:10;;;;;;;27.10;25.90;;;23.10;99.90;;;;;;5051965;28;20439;-57
2023/06/23 07:48:37;;;;;;;26.80;25.57;;;23.10;99.90;;;;;;5051960;28;20514;-58
2023/06/23 07:51:04;;;;;;;27.17;26.00;;;23.10;99.90;;;;;;5052035;28;20534;-54
2023/06/23 07:53:31;;;;;;;26.60;25.40;;;23.10;99.90;;;;;;5051981;28;20475;-58
2023/06/23 07:55:58;;;;;;;27.63;26.43;;;23.20;99.90;;;;;;5051831;28;20531;-55
2023/06/23 07:58:26;;;;;;;25.83;24.87;;;23.20;99.90;;;;;;5051671;28;20982;-59
2023/06/23 08:00:53;;;;;;;26.80;25.40;;;23.20;99.90;;;;;;5052058;28;20532;-60
2023/06/23 08:03:20;;;;;;;27.77;26.33;;;23.20;99.90;;;;;;5051824;28;20475;-60
2023/06/23 08:05:47;;;;;;;27.37;26.20;;;23.20;99.90;;;;;;5051770;28;20452;-58
2023/06/23 08:08:14;;;;;;;28.00;26.80;;;23.20;99.90;;;;;;5051808;28;20518;-55
2023/06/23 08:10:41;;;;;;;27.00;25.90;;;23.20;99.90;;;;;;5051923;28;20467;-59
2023/06/23 08:13:08;;;;;;;26.40;25.30;;;23.20;99.90;;;;;;5051732;28;20502;-60
2023/06/23 08:15:36;;;;;;;26.07;24.73;;;23.30;99.90;;;;;;5051675;28;20473;-57
2023/06/23 08:18:03;;;;;;;29.07;27.47;;;23.30;99.90;;;;;;5051689;28;20499;-59
2023/06/23 08:20:30;;;;;;;26.30;25.10;;;23.30;99.90;;;;;;5051587;28;20571;-59
2023/06/23 08:22:56;;;;;;;26.30;25.20;;;23.30;99.90;;;;;;5051792;28;20479;-57
2023/06/23 08:25:23;;;;;;;26.17;25.17;;;23.30;99.90;;;;;;5051357;28;20472;-63
2023/06/23 08:27:50;;;;;;;24.80;23.90;;;23.30;99.90;;;;;;5051420;28;20499;-61
2023/06/23 08:30:25;;;;;;;27.90;26.70;;;23.30;99.90;;;;;;5051484;28;20472;-62
2023/06/23 08:32:53;;;;;;;26.03;24.90;;;23.30;99.90;;;;;;5051542;28;20522;-57
2023/06/23 08:35:20;;;;;;;28.13;26.87;;;23.40;99.90;;;;;;5051341;28;20487;-61
2023/06/23 08:37:47;;;;;;;25.20;24.20;;;23.40;99.90;;;;;;5051239;28;20507;-61
2023/06/23 08:40:14;;;;;;;25.10;24.10;;;23.40;99.90;;;;;;5051460;28;21036;-57
2023/06/23 08:42:41;;;;;;;28.13;26.83;;;23.40;99.90;;;;;;5051482;28;20448;-56
2023/06/23 08:45:12;;;;;;;24.80;23.70;;;23.40;99.90;;;;;;5051380;28;20543;-63
2023/06/23 08:47:46;;;;;;;26.03;24.93;;;23.40;99.90;;;;;;5051109;28;20470;-62
2023/06/23 08:50:15;;;;;;;25.57;24.57;;;23.40;99.90;;;;;;5051374;28;20505;-62
2023/06/23 08:52:43;;;;;;;27.97;26.67;;;23.40;99.90;;;;;;5051336;28;20476;-62
2023/06/23 08:55:11;;;;;;;27.10;25.90;;;23.50;99.90;;;;;;5051252;28;20487;-62
2023/06/23 08:57:38;;;;;;;25.90;24.80;;;23.40;99.90;;;;;;5051041;28;20499;-62
2023/06/23 09:00:07;;;;;;;24.20;23.30;;;23.40;99.90;;;;;;5051118;28;20511;-61
2023/06/23 09:02:34;;;;;;;26.50;25.40;;;23.50;99.90;;;;;;5051419;28;20444;-58
2023/06/23 09:05:01;;;;;;;26.97;25.87;;;23.50;99.90;;;;;;5051208;28;20476;-58
2023/06/23 09:07:29;;;;;;;27.07;25.83;;;23.50;99.90;;;;;;5050921;28;20517;-55
2023/06/23 09:09:57;;;;;;;27.00;25.90;;;23.50;99.90;;;;;;5051288;28;20471;-55
2023/06/23 09:12:25;;;;;;;27.43;26.30;;;23.50;99.90;;;;;;5051209;28;20954;-57
2023/06/23 09:14:52;;;;;;;25.93;24.93;;;23.50;99.90;;;;;;5051221;28;20545;-57
2023/06/23 09:17:19;;;;;;;26.70;25.60;;;23.50;99.90;;;;;;5050871;28;20875;-55
2023/06/23 09:19:49;;;;;;;26.50;25.40;;;23.60;99.90;;;;;;5051154;28;21065;-59
2023/06/23 09:22:19;;;;;;;26.57;25.47;;;23.60;99.90;;;;;;5051030;28;20448;-58
2023/06/23 09:24:48;;;;;;;27.17;26.07;;;23.60;99.90;;;;;;5052192;28;20447;-55
2023/06/23 09:27:15;;;;;;;25.30;24.30;;;23.60;99.90;;;;;;5054844;28;20521;-57
2023/06/23 09:29:43;;;;;;;24.70;23.70;;;23.60;99.90;;;;;;5054870;28;20460;-55
2023/06/23 09:32:10;;;;;;;25.57;24.60;;;23.60;99.90;;;;;;5054720;28;20447;-61
2023/06/23 09:34:38;;;;;;;24.33;23.33;;;23.60;99.90;;;;;;5054882;28;20850;-55
2023/06/23 09:37:07;;;;;;;25.17;24.10;;;23.60;99.90;;;;;;5054624;28;20458;-56
2023/06/23 09:39:35;;;;;;;25.53;24.40;;;23.70;99.90;;;;;;5054712;28;20487;-57
2023/06/23 09:42:08;;;;;;;27.13;26.03;;;23.70;99.90;;;;;;5054816;28;20883;-59
2023/06/23 09:44:36;;;;;;;24.30;23.40;;;23.70;99.90;;;;;;5054749;28;20910;-59
2023/06/23 09:47:04;;;;;;;27.27;25.97;;;23.70;99.90;;;;;;5054391;28;20532;-57
2023/06/23 09:49:38;;;;;;;25.50;24.40;;;23.70;99.90;;;;;;5054434;28;20869;-56
2023/06/23 09:52:07;;;;;;;26.30;25.30;;;23.70;99.90;;;;;;5054564;28;20818;-57
2023/06/23 09:54:36;;;;;;;25.30;24.20;;;23.70;99.90;;;;;;5054418;28;20475;-59
2023/06/23 09:57:06;;;;;;;25.70;24.70;;;23.80;99.90;;;;;;5054005;28;20452;-56
2023/06/23 09:59:33;;;;;;;25.00;24.00;;;23.70;99.90;;;;;;5054078;28;20510;-62
2023/06/23 10:02:00;;;;;;;25.40;24.40;;;23.80;99.90;;;;;;5054052;28;20490;-58
2023/06/23 10:04:30;;;;;;;26.60;25.60;;;23.80;99.90;;;;;;5054249;28;20843;-62
2023/06/23 10:06:58;;;;;;;24.63;23.73;;;23.80;99.90;;;;;;5053912;28;20447;-60
2023/06/23 10:09:26;;;;;;;25.80;24.90;;;23.80;99.90;;;;;;5054139;28;20499;-60
2023/06/23 10:11:53;;;;;;;25.53;24.53;;;23.80;99.90;;;;;;5053944;28;20925;-57
2023/06/23 10:14:22;;;;;;;27.33;26.43;;;23.80;99.90;;;;;;5053852;28;20503;-58
2023/06/23 10:16:57;;;;;;;26.70;25.60;;;23.80;99.90;;;;;;5053633;28;20483;-62
2023/06/23 10:19:24;;;;;;;28.40;27.23;;;23.80;99.90;;;;;;5053684;28;20519;-56
2023/06/23 10:21:52;;;;;;;28.27;27.17;;;23.80;99.90;;;;;;5053876;28;20472;-56
2023/06/23 10:24:22;;;;;;;26.50;25.50;;;23.90;99.90;;;;;;5053693;28;20444;-58
2023/06/23 10:26:52;;;;;;;25.83;24.93;;;23.90;99.90;;;;;;5053551;28;20440;-62
2023/06/23 10:29:22;;;;;;;26.27;25.27;;;23.90;99.90;;;;;;5053548;28;20468;-62
2023/06/23 10:31:56;;;;;;;30.00;28.57;;;23.90;99.90;;;;;;5053509;28;20953;-58
2023/06/23 10:34:25;;;;;;;25.63;24.60;;;23.90;99.90;;;;;;5053800;28;20448;-57
2023/06/23 10:36:55;;;;;;;25.63;24.63;;;23.90;99.90;;;;;;5053221;28;20482;-59
2023/06/23 10:39:25;;;;;;;26.63;25.50;;;23.90;99.90;;;;;;5053253;28;20472;-57
2023/06/23 10:41:58;;;;;;;26.77;25.67;;;23.90;99.90;;;;;;5053327;28;20483;-59
2023/06/23 10:44:26;;;;;;;27.50;26.30;;;23.90;99.90;;;;;;5053311;28;20506;-59
2023/06/23 10:46:54;;;;;;;26.20;25.20;;;23.90;99.90;;;;;;5053104;28;20482;-56
2023/06/23 10:49:21;;;;;;;25.87;24.90;;;23.90;99.90;;;;;;5053199;28;20551;-56
2023/06/23 10:51:49;;;;;;;24.67;23.77;;;24.00;99.90;;;;;;5069620;22;20544;-52
2023/06/23 10:54:27;;;;;;;26.07;24.90;;;24.00;99.90;;;;;;5013322;28;20478;-51
2023/06/23 10:56:54;;;;;;;27.10;26.10;;;24.00;99.90;;;;;;5013471;28;21208;-51
2023/06/23 10:59:23;;;;;;;26.60;25.40;;;24.00;99.90;;;;;;5013330;28;20965;-51
2023/06/23 11:02:18;;;;;;;27.17;25.57;;;24.00;99.90;;;;;;5025543;28;20889;-52
2023/06/23 11:04:54;;;;;;;25.80;24.77;;;24.00;99.80;;;;;;5033339;28;20479;-52
2023/06/23 11:07:21;;;;;;;26.33;25.33;;;24.00;99.70;;;;;;5033173;28;20820;-53
2023/06/23 11:09:54;;;;;;;25.73;24.83;;;24.10;99.60;;;;;;5033063;28;20473;-51
2023/06/23 11:12:31;;;;;;;27.10;26.10;;;24.10;99.10;;;;;;5032942;28;20473;-54
2023/06/23 11:15:12;;;;;;;25.77;24.77;;;24.10;98.40;;;;;;5033010;28;20874;-51
2023/06/23 11:17:45;;;;;;;27.23;26.13;;;24.10;98.40;;;;;;5032714;28;20480;-55
2023/06/23 11:20:14;;;;;;;25.83;24.83;;;24.10;97.80;;;;;;5033240;28;20519;-51
2023/06/23 11:22:52;;;;;;;26.20;25.23;;;24.10;96.90;;;;;;5033052;28;21116;-55
2023/06/23 11:25:24;;;;;;;26.10;25.20;;;24.10;96.30;;;;;;5032698;28;20531;-53
2023/06/23 11:28:24;;;;;;;26.13;25.13;;;24.10;96.30;;;;;;5032716;28;20445;-54
2023/06/23 11:30:53;;;;;;;25.43;24.43;;;24.10;96.50;;;;;;5032644;28;20457;-49
2023/06/23 11:33:28;;;;;;;26.23;25.23;;;24.10;95.90;;;;;;5032698;28;20444;-52
2023/06/23 11:35:55;;;;;;;26.93;25.80;;;24.10;95.20;;;;;;5032528;28;20441;-51
2023/06/23 11:38:22;;;;;;;26.00;25.00;;;24.10;95.20;;;;;;5032415;28;20483;-54
2023/06/23 11:40:51;;;;;;;26.23;25.23;;;24.20;95.10;;;;;;5032517;28;20555;-53
2023/06/23 11:43:18;;;;;;;25.93;25.00;;;24.10;95.00;;;;;;5032548;28;20454;-53
2023/06/23 11:45:48;;;;;;;26.93;25.83;;;24.20;95.00;;;;;;5032554;28;20445;-51
2023/06/23 11:48:15;;;;;;;26.33;25.33;;;24.20;94.90;;;;;;5032319;28;20453;-51
2023/06/23 11:50:44;;;;;;;25.13;24.10;;;24.20;94.00;;;;;;5032199;28;20878;-54
2023/06/23 11:53:11;;;;;;;26.23;25.23;;;24.20;93.70;;;;;;5032363;28;20866;-51
2023/06/23 11:55:38;;;;;;;25.23;24.33;;;24.20;94.00;;;;;;5031967;28;20560;-54
2023/06/23 11:58:05;;;;;;;27.33;26.23;;;24.20;94.20;;;;;;5031881;28;20926;-54
2023/06/23 12:00:32;;;;;;;26.50;25.40;;;24.20;94.10;;;;;;5031849;28;20649;-52
2023/06/23 12:02:59;;;;;;;27.73;26.53;;;24.30;93.80;;;;;;5032048;28;20480;-52
2023/06/23 12:05:27;;;;;;;27.83;26.73;;;24.30;93.60;;;;;;5031981;28;20989;-52
2023/06/23 12:07:56;;;;;;;26.90;25.80;;;24.30;93.30;;;;;;5032191;28;20449;-55
2023/06/23 12:10:24;;;;;;;26.50;25.50;;;24.30;92.80;;;;;;5031854;28;20441;-52
2023/06/23 12:12:53;;;;;;;26.80;25.80;;;24.30;92.60;;;;;;5032037;28;20459;-53
2023/06/23 12:15:23;;;;;;;26.43;25.33;;;24.30;92.40;;;;;;5031705;28;20448;-53
2023/06/23 12:17:50;;;;;;;26.97;25.97;;;24.30;92.00;;;;;;5032099;28;20455;-54
2023/06/23 12:20:19;;;;;;;26.37;25.37;;;24.30;91.70;;;;;;5032061;28;20481;-53
2023/06/23 12:22:50;;;;;;;26.20;25.10;;;24.30;91.90;;;;;;5032164;28;20446;-53
2023/06/23 12:25:20;;;;;;;25.63;24.73;;;24.40;92.10;;;;;;5032408;28;20451;-53
2023/06/23 12:27:55;;;;;;;25.30;24.40;;;24.40;91.90;;;;;;5031882;28;20529;-54
2023/06/23 12:30:23;;;;;;;26.23;25.23;;;24.40;91.80;;;;;;5031786;28;20961;-51
2023/06/23 12:32:55;;;;;;;26.37;25.37;;;24.40;92.40;;;;;;5031842;28;20453;-51
2023/06/23 12:35:22;;;;;;;27.97;26.97;;;24.40;92.10;;;;;;5031889;28;20445;-51
2023/06/23 12:37:50;;;;;;;25.40;24.50;;;24.50;91.50;;;;;;5031849;28;20445;-52
2023/06/23 12:40:32;;;;;;;26.40;25.33;;;24.50;90.90;;;;;;5031705;28;20513;-52
2023/06/23 12:43:00;;;;;;;27.93;26.83;;;24.50;90.80;;;;;;5031673;28;20445;-52
2023/06/23 12:45:28;;;;;;;26.10;25.10;;;24.50;91.00;;;;;;5031364;28;20457;-53
2023/06/23 12:47:55;;;;;;;28.23;27.07;;;24.50;91.10;;;;;;5031537;28;20550;-52
2023/06/23 12:50:28;;;;;;;27.97;26.97;;;24.50;90.90;;;;;;5031343;28;20488;-54
2023/06/23 12:52:56;;;;;;;4.40;4.10;;;24.50;90.40;;;;;;5023014;28;20466;-57
2023/06/23 12:55:23;;;;;;;4.50;4.20;;;24.60;91.10;;;;;;5021411;28;20759;-55
2023/06/23 12:57:51;;;;;;;4.60;4.40;;;24.60;91.10;;;;;;5011451;28;20481;-58
2023/06/23 13:00:21;;;;;;;3.53;3.33;;;24.70;90.60;;;;;;5012463;28;20542;-58
2023/06/23 13:02:49;;;;;;;3.83;3.63;;;24.80;90.10;;;;;;5016821;28;20249;-58
2023/06/23 13:05:16;;;;;;;4.40;3.93;;;24.90;88.00;;;;;;5031435;28;20474;-60
2023/06/23 13:07:43;;;;;;;4.07;3.87;;;25.00;86.30;;;;;;5031486;28;20507;-59
2023/06/23 13:10:11;;;;;;;4.07;3.87;;;25.10;85.40;;;;;;5035543;28;20941;-58
2023/06/23 13:12:39;;;;;;;4.10;3.83;;;25.20;85.40;;;;;;5034131;28;20473;-60
2023/06/23 13:15:08;;;;;;;3.87;3.57;;;25.20;84.90;;;;;;5036040;28;20488;-59
2023/06/23 13:17:35;;;;;;;4.20;4.00;;;25.30;83.30;;;;;;5034099;28;20456;-60
2023/06/23 13:20:04;;;;;;;3.80;3.50;;;25.40;82.40;;;;;;5016019;28;20477;-60
2023/06/23 13:22:31;;;;;;;5.20;4.90;;;25.40;83.40;;;;;;5017304;28;20474;-58
2023/06/23 13:24:58;;;;;;;4.90;4.60;;;25.40;81.90;;;;;;5015376;28;20489;-60
2023/06/23 13:27:25;;;;;;;4.23;4.03;;;25.50;82.00;;;;;;5015363;28;20453;-62
2023/06/23 13:29:52;;;;;;;4.60;4.37;;;25.50;81.00;;;;;;5015528;28;20970;-60
2023/06/23 13:32:20;;;;;;;4.27;4.00;;;25.50;79.60;;;;;;5017128;28;20497;-59
2023/06/23 13:34:47;;;;;;;4.47;4.27;;;25.60;80.40;;;;;;5035268;28;20491;-60
2023/06/23 13:37:14;;;;;;;4.97;4.57;;;25.60;78.80;;;;;;5035822;28;20946;-60
2023/06/23 13:39:41;;;;;;;29.52;28.33;;;25.70;80.10;;;;;;5035766;28;20854;-58
2023/06/23 13:42:08;;;;;;;27.40;26.40;;;25.70;78.70;;;;;;5035249;28;20714;-56
2023/06/23 13:44:35;;;;;;;27.90;26.90;;;25.70;78.30;;;;;;5035485;28;20449;-58
2023/06/23 13:47:02;;;;;;;28.00;26.80;;;25.80;78.10;;;;;;5035013;28;20449;-57
2023/06/23 13:49:31;;;;;;;28.17;27.07;;;25.80;77.80;;;;;;5035255;28;20460;-57
2023/06/23 13:51:57;;;;;;;28.93;27.83;;;25.80;77.70;;;;;;5035102;28;20504;-57
2023/06/23 13:54:26;;;;;;;26.80;25.80;;;25.80;77.10;;;;;;5035267;28;20476;-57
2023/06/23 13:56:53;;;;;;;32.30;31.13;;;25.80;76.70;;;;;;5035028;28;20507;-59
2023/06/23 13:59:20;;;;;;;26.70;25.70;;;25.90;76.00;;;;;;5035221;28;20444;-54
2023/06/23 14:01:50;;;;;;;29.63;28.43;;;25.90;76.00;;;;;;5034925;28;20481;-57
2023/06/23 14:04:19;;;;;;;26.10;25.20;;;25.90;75.90;;;;;;5035201;28;20476;-59
2023/06/23 14:06:48;;;;;;;28.07;26.97;;;25.90;76.00;;;;;;5035046;28;20933;-56
2023/06/23 14:09:15;;;;;;;28.17;27.17;;;26.00;76.10;;;;;;5035102;28;20857;-58
2023/06/23 14:11:42;;;;;;;29.87;28.77;;;25.90;76.30;;;;;;5034803;28;20536;-58
2023/06/23 14:14:09;;;;;;;28.13;27.03;;;26.00;76.00;;;;;;5019575;28;20473;-58
2023/06/23 14:16:37;;;;;;;28.47;27.47;;;26.10;77.80;;;;;;5034880;28;20917;-55
2023/06/23 14:19:04;;;;;;;29.37;28.27;;;26.10;78.80;;;;;;5036962;28;20484;-58
2023/06/23 14:21:31;;;;;;;27.40;26.40;;;26.20;78.30;;;;;;5036746;28;20540;-58
2023/06/23 14:24:00;;;;;;;28.10;27.00;;;26.20;78.10;;;;;;5031139;28;20481;-60
2023/06/23 14:26:27;;;;;;;28.27;27.10;;;26.20;77.60;;;;;;5016287;28;20478;-61
2023/06/23 14:28:54;;;;;;;23.43;22.23;;;26.20;75.70;;;;;;5018274;28;20469;-59
2023/06/23 14:31:21;;;;;;;4.50;4.20;;;26.10;75.80;;;;;;5026820;28;20489;-59
2023/06/23 14:33:47;;;;;;;5.20;4.90;;;26.20;77.60;;;;;;5016736;28;20943;-58
2023/06/23 14:36:14;;;;;;;4.53;4.13;;;26.30;77.50;;;;;;5016329;28;20879;-58
2023/06/23 14:38:41;;;;;;;4.77;4.40;;;26.30;77.20;;;;;;5015605;28;20453;-60
2023/06/23 14:41:10;;;;;;;4.87;4.57;;;26.40;77.30;;;;;;5016242;28;20581;-59
2023/06/23 14:43:37;;;;;;;4.73;4.50;;;26.40;74.90;;;;;;5017112;28;20982;-60
2023/06/23 14:46:03;;;;;;;4.37;4.17;;;26.50;75.40;;;;;;5016758;28;20454;-54
2023/06/23 14:48:30;;;;;;;28.37;27.27;;;26.50;74.70;;;;;;5024989;28;20474;-55
2023/06/23 14:50:57;;;;;;;30.80;28.47;;;26.50;74.90;;;;;;5029540;28;20987;-58
2023/06/23 14:53:24;;;;;;;26.60;25.60;;;26.40;74.00;;;;;;5027014;28;20511;-53
2023/06/23 14:55:51;;;;;;;30.60;29.50;;;26.40;74.30;;;;;;5038752;28;20495;-58
2023/06/23 14:58:20;;;;;;;27.50;26.40;;;26.40;74.20;;;;;;5038551;28;20441;-55
2023/06/23 15:00:47;;;;;;;28.10;27.00;;;26.40;73.30;;;;;;5036682;28;20497;-55
2023/06/23 15:03:14;;;;;;;28.23;27.23;;;26.50;72.90;;;;;;5027185;28;20489;-55
2023/06/23 15:05:41;;;;;;;29.00;27.90;;;26.50;73.00;;;;;;5032727;28;20548;-58
2023/06/23 15:08:08;;;;;;;29.20;28.00;;;26.50;72.50;;;;;;5032878;28;20449;-58
2023/06/23 15:10:36;;;;;;;28.60;27.40;;;26.50;72.60;;;;;;5033034;28;20475;-55
2023/06/23 15:13:04;;;;;;;27.50;26.50;;;26.50;72.60;;;;;;5032874;28;20447;-55
2023/06/23 15:15:32;;;;;;;28.60;27.50;;;26.50;73.40;;;;;;5032608;28;20536;-53
2023/06/23 15:17:59;;;;;;;29.37;28.17;;;26.50;73.60;;;;;;5013673;28;20485;-54
2023/06/23 15:20:26;;;;;;;27.10;26.20;;;26.50;74.70;;;;;;5012688;28;20450;-58
2023/06/23 15:22:53;;;;;;;27.40;26.40;;;26.60;72.50;;;;;;5011930;28;21054;-57
2023/06/23 15:25:20;;;;;;;27.20;26.10;;;26.60;71.40;;;;;;5023186;28;20984;-57
2023/06/23 15:27:47;;;;;;;28.50;27.40;;;26.60;71.80;;;;;;5032619;28;20484;-56
2023/06/23 15:30:14;;;;;;;27.10;26.10;;;26.60;71.50;;;;;;5032535;28;20875;-55
2023/06/23 15:32:42;;;;;;;27.83;26.83;;;26.60;71.10;;;;;;5032456;28;20497;-58
2023/06/23 15:35:10;;;;;;;26.83;25.83;;;26.60;72.20;;;;;;5030842;28;20473;-60
2023/06/23 15:37:39;;;;;;;28.90;27.70;;;26.60;73.10;;;;;;5032394;28;20931;-54
2023/06/23 15:40:10;;;;;;;28.30;27.20;;;26.60;73.40;;;;;;5032887;28;20444;-60
2023/06/23 15:42:38;;;;;;;27.87;26.77;;;26.70;72.90;;;;;;5031228;28;20823;-58
2023/06/23 15:45:06;;;;;;;26.60;25.60;;;26.70;72.50;;;;;;5030527;28;20482;-58
2023/06/23 15:47:33;;;;;;;29.43;28.33;;;26.70;72.60;;;;;;5030506;28;20289;-58
2023/06/23 15:50:01;;;;;;;26.63;25.63;;;26.80;71.90;;;;;;5026719;28;20445;-54
2023/06/23 15:52:28;;;;;;;27.07;25.97;;;26.80;71.10;;;;;;5032071;28;20999;-55
2023/06/23 15:54:55;;;;;;;27.53;26.43;;;26.80;70.10;;;;;;5032528;28;20488;-61
2023/06/23 15:57:23;;;;;;;26.03;25.03;;;26.80;69.30;;;;;;5032132;28;20795;-60
2023/06/23 15:59:50;;;;;;;26.10;25.00;;;26.90;69.40;;;;;;5026567;28;20450;-60
2023/06/23 16:02:18;;;;;;;26.40;25.40;;;26.90;70.20;;;;;;5012222;28;20518;-61
2023/06/23 16:04:45;;;;;;;25.77;24.80;;;26.90;70.60;;;;;;5017125;28;20849;-62
2023/06/23 16:07:14;;;;;;;24.33;23.43;;;26.90;70.70;;;;;;5029188;28;20488;-59
2023/06/23 16:09:40;;;;;;;24.37;23.47;;;27.00;71.10;;;;;;5032005;28;20485;-60
2023/06/23 16:12:09;;;;;;;24.57;23.67;;;27.00;70.80;;;;;;5032327;28;20905;-58
2023/06/23 16:14:36;;;;;;;25.03;24.03;;;27.00;70.70;;;;;;5032426;28;20536;-59
2023/06/23 16:17:03;;;;;;;26.40;25.40;;;27.00;70.20;;;;;;5018069;28;20478;-59
2023/06/23 16:19:30;;;;;;;26.93;25.83;;;27.00;68.50;;;;;;5014939;28;20485;-59
2023/06/23 16:21:57;;;;;;;26.20;25.20;;;27.00;67.90;;;;;;5014169;28;20971;-62
2023/06/23 16:24:25;;;;;;;28.73;27.53;;;27.00;69.80;;;;;;5014426;28;20481;-57
2023/06/23 16:26:52;;;;;;;27.60;26.60;;;26.90;68.10;;;;;;5016847;28;20485;-57
2023/06/23 16:29:19;;;;;;;28.90;27.70;;;26.80;68.10;;;;;;5016430;28;20870;-56
2023/06/23 16:31:47;;;;;;;28.83;27.73;;;26.80;68.60;;;;;;5014071;28;20521;-56
2023/06/23 16:34:14;;;;;;;26.10;24.90;;;26.80;70.00;;;;;;5018553;28;20441;-59
2023/06/23 16:36:41;;;;;;;27.93;26.70;;;26.80;68.80;;;;;;5033824;28;20969;-58
2023/06/23 16:39:08;;;;;;;27.73;26.63;;;26.80;70.00;;;;;;5033062;28;20449;-60
2023/06/23 16:41:37;;;;;;;27.90;26.80;;;26.80;69.60;;;;;;5032833;28;20512;-60
2023/06/23 16:44:04;;;;;;;29.47;28.23;;;26.80;69.90;;;;;;5032034;28;20469;-61
2023/06/23 16:46:31;;;;;;;27.90;26.67;;;26.80;69.50;;;;;;5032402;28;20516;-61
2023/06/23 16:48:58;;;;;;;28.27;27.27;;;26.80;69.50;;;;;;5032896;28;20500;-58
2023/06/23 16:51:25;;;;;;;30.53;29.23;;;26.80;69.30;;;;;;5032428;28;20508;-60
2023/06/23 16:53:52;;;;;;;28.47;27.30;;;26.80;68.70;;;;;;5029799;28;20491;-60
2023/06/23 16:56:19;;;;;;;28.53;27.30;;;26.80;68.80;;;;;;5023800;28;20493;-59
2023/06/23 16:58:47;;;;;;;26.70;25.60;;;26.90;69.10;;;;;;5011800;28;20963;-58
2023/06/23 17:01:14;;;;;;;27.67;26.57;;;26.90;69.70;;;;;;5011879;28;21041;-58
2023/06/23 17:03:41;;;;;;;28.43;27.03;;;26.90;69.70;;;;;;5011662;28;20485;-59
2023/06/23 17:06:08;;;;;;;28.00;27.00;;;26.90;68.80;;;;;;5019030;28;20999;-60
2023/06/23 17:08:35;;;;;;;27.10;26.00;;;26.90;68.50;;;;;;5030679;28;20536;-56
2023/06/23 17:11:02;;;;;;;27.30;26.30;;;26.80;68.80;;;;;;5031469;28;20500;-58
2023/06/23 17:13:29;;;;;;;28.83;27.57;;;26.80;68.80;;;;;;5031192;28;20585;-57